Terminal Aerodrome Forecast
Issued by NWS La Crosse, WI

Home | Current Version | Previous Version | Text Only | Print | Product List | Glossary On
Versions: 1 2 3 4 5 6 7 8 9 10 11 12 13 14 15 16 17 18 19 20 21 22 23 24 25 26 27 28 29 30 31 32 33 34 35 36 37 38
753
FTUS43 KARX 302337
TAFLSE
TAF
KLSE 302337Z 0100/0124 07010G17KT P6SM -SHRA BKN035
     FM010300 04009KT P6SM -SHRA SCT020 BKN040
     FM011100 03008KT P6SM BKN035
     FM011600 03011G17KT P6SM BKN050=

USA.gov is the U.S. government's official web portal to all federal, state and local government web resources and services.